Flight Track Log - Related Links

Times and Time Zones

All times are in EDT time to prevent confusion due to time zone crossing. See the SKW4730 flight status page for this flight to view local times or setup timezone preferences in your user account.

Time Position Orientation Groundspeed Altitude Reporting Facility
EDT Latitude Longitude Course Direction KTS MPH feet Rate Location/Type
Sun 04:07:31 PM 33.8500 -118.1833 15° North 177 204 1,400  Level Southern California TRACON
Sun 04:08:31 PM 33.8500 -118.2500 270° West 243 280 3,500 2,338 Climbing Southern California TRACON
Sun 04:09:47 PM 33.7875 -118.2606 188° South 223 257 6,700 2,174 Climbing Los Angeles Center
Sun 04:10:49 PM 33.7181 -118.2675 185° South 241 277 8,500 1,776 Climbing Los Angeles Center
Sun 04:11:00 PM 33.7824 -117.9755 23° Northeast  Level FlightAware Approximate
Sun 04:11:52 PM 33.6514 -118.2314 156° South 287 330 10,400  Level Los Angeles Center
Sun 04:12:00 PM 33.8958 -117.9236 15° North  Level FlightAware Approximate
Sun 04:12:54 PM 33.6775 -118.1494 69° East 288 331 13,000  Level Los Angeles Center
Sun 04:13:56 PM 33.7503 -118.0825 37° Northeast 278 320 15,700 2,177 Climbing Los Angeles Center
Sun 04:14:58 PM 33.8183 -118.0217 37° Northeast 302 348 17,500 1,597 Climbing Los Angeles Center
Sun 04:16:00 PM 33.8911 -117.9575 36° Northeast 321 369 19,000 1,306 Climbing Los Angeles Center
Sun 04:17:02 PM 33.9642 -117.8914 37° Northeast 330 380 20,200 1,355 Climbing Los Angeles Center
Sun 04:18:04 PM 34.0403 -117.8225 37° Northeast 341 392 21,800 1,597 Climbing Los Angeles Center
Sun 04:19:06 PM 34.1272 -117.7267 42° Northeast 352 405 23,500 1,597 Climbing Los Angeles Center
Sun 04:20:08 PM 34.1936 -117.6358 49° Northeast 362 417 25,100 1,392 Climbing Los Angeles Center
Sun 04:21:11 PM 34.2622 -117.5419 49° Northeast 371 427 26,400 1,296 Climbing Los Angeles Center
Sun 04:22:13 PM 34.3319 -117.4475 48° Northeast 376 433 27,800 1,258 Climbing Los Angeles Center
Sun 04:23:15 PM 34.4053 -117.3464 49° Northeast 384 442 29,000 1,113 Climbing Los Angeles Center
Sun 04:24:17 PM 34.4783 -117.2464 48° Northeast 396 456 30,100 1,016 Climbing Los Angeles Center
Sun 04:25:19 PM 34.5522 -117.1447 49° Northeast 403 464 31,100 1,113 Climbing Los Angeles Center
Sun 04:26:21 PM 34.6414 -117.0219 49° Northeast 405 466 32,400 1,161 Climbing Los Angeles Center
Sun 04:27:23 PM 34.7150 -116.9183 49° Northeast 406 467 33,500 968 Climbing Los Angeles Center
Sun 04:28:25 PM 34.7906 -116.8142 49° Northeast 411 473 34,400 726 Climbing Los Angeles Center
Sun 04:29:27 PM 34.8661 -116.7097 49° Northeast 412 474 35,000 290 Climbing Los Angeles Center
Sun 04:30:29 PM 34.9444 -116.5994 49° Northeast 431 496 35,000  Level Los Angeles Center
Sun 04:31:32 PM 35.0492 -116.4644 47° Northeast 455 524 35,000  Level Los Angeles Center
Sun 04:32:34 PM 35.1375 -116.3561 45° Northeast 454 522 35,000  Level Los Angeles Center
Sun 04:33:36 PM 35.2258 -116.2456 46° Northeast 454 522 35,000  Level Los Angeles Center
Sun 04:34:38 PM 35.3119 -116.1350 46° Northeast 453 521 35,000  Level Los Angeles Center
Sun 04:35:40 PM 35.3992 -116.0244 46° Northeast 452 520 35,000  Level Los Angeles Center
Sun 04:36:42 PM 35.5064 -115.8936 45° Northeast 454 522 35,000  Level Los Angeles Center
Sun 04:37:44 PM 35.6011 -115.7961 40° Northeast 446 513 35,000  Level Los Angeles Center
Sun 04:38:46 PM 35.7031 -115.7089 35° Northeast 445 512 35,000  Level Los Angeles Center
Sun 04:39:48 PM 35.8064 -115.6228 34° Northeast 449 517 35,000  Level Los Angeles Center
Sun 04:40:50 PM 35.9089 -115.5358 34° Northeast 449 517 35,000  Level Los Angeles Center
Sun 04:41:53 PM 36.0311 -115.4328 34° Northeast 446 513 35,000  Level Los Angeles Center
Sun 04:42:55 PM 36.1322 -115.3456 35° Northeast 448 516 35,000  Level Los Angeles Center
Sun 04:43:57 PM 36.2344 -115.2600 34° Northeast 449 517 35,000  Level Los Angeles Center
Sun 04:44:59 PM 36.3350 -115.1725 35° Northeast 448 516 35,000  Level Los Angeles Center
Sun 04:46:01 PM 36.4369 -115.0853 35° Northeast 449 517 35,000  Level Los Angeles Center
Sun 04:47:03 PM 36.5592 -114.9808 34° Northeast 447 514 35,000  Level Los Angeles Center
Sun 04:48:05 PM 36.6619 -114.8928 34° Northeast 449 517 35,000  Level Los Angeles Center
Sun 04:49:07 PM 36.7650 -114.8039 35° Northeast 451 519 35,000  Level Los Angeles Center
Sun 04:50:09 PM 36.8789 -114.7067 34° Northeast 449 517 35,000  Level Los Angeles Center
Sun 04:51:11 PM 36.9819 -114.6164 35° Northeast 449 517 35,000  Level Los Angeles Center
Sun 04:52:14 PM 37.0731 -114.5367 35° Northeast 449 517 35,000  Level Los Angeles Center
Sun 04:53:16 PM 37.1964 -114.4292 35° Northeast 450 518 35,000  Level Los Angeles Center
Sun 04:54:18 PM 37.2989 -114.3392 35° Northeast 450 518 35,000  Level Los Angeles Center
Sun 04:55:20 PM 37.3939 -114.2561 35° Northeast 452 520 35,000  Level Los Angeles Center
Sun 04:56:22 PM 37.5164 -114.1464 35° Northeast 451 519 35,000  Level Los Angeles Center
Sun 04:57:24 PM 37.6197 -114.0539 35° Northeast 453 521 35,000  Level Los Angeles Center
Sun 04:58:26 PM 37.7228 -113.9617 35° Northeast 452 520 35,000  Level Los Angeles Center
Sun 04:59:28 PM 37.8264 -113.8697 35° Northeast 452 520 35,000  Level Los Angeles Center
Sun 05:00:38 PM 37.9489 -113.7581 36° Northeast 452 520 35,000  Level Salt Lake Center
Sun 05:01:40 PM 38.0522 -113.6636 36° Northeast 455 524 35,000  Level Salt Lake Center
Sun 05:02:42 PM 38.1572 -113.5681 36° Northeast 461 531 35,000  Level Salt Lake Center
Sun 05:03:44 PM 38.2617 -113.4728 36° Northeast 461 531 35,000  Level Salt Lake Center
Sun 05:04:46 PM 38.3667 -113.3781 35° Northeast 461 531 35,000 -242 Level Salt Lake Center
Sun 05:05:48 PM 38.4925 -113.2622 36° Northeast 464 534 34,500 -629 Descending Salt Lake Center
Sun 05:06:50 PM 38.5967 -113.1647 36° Northeast 464 534 33,700 -774 Descending Salt Lake Center
Sun 05:07:52 PM 38.6989 -113.0694 36° Northeast 458 527 32,900 -1,016 Descending Salt Lake Center
Sun 05:08:54 PM 38.8028 -112.9744 35° Northeast 458 527 31,600 -919 Descending Salt Lake Center
Sun 05:09:56 PM 38.9081 -112.8781 35° Northeast 464 534 31,000 -290 Descending Salt Lake Center
Sun 05:10:58 PM 39.0117 -112.7803 36° Northeast 464 534 31,000  Level Salt Lake Center
Sun 05:12:00 PM 39.1172 -112.6806 36° Northeast 470 541 31,000  Level Salt Lake Center
Sun 05:13:02 PM 39.2436 -112.5683 35° Northeast 478 550 31,000 -1,548 Level Salt Lake Center
Sun 05:14:04 PM 39.3617 -112.5011 24° Northeast 470 541 27,800 -3,097 Descending Salt Lake Center
Sun 05:15:06 PM 39.4775 -112.4350 24° Northeast 459 528 24,600 -3,097 Descending Salt Lake Center
Sun 05:16:08 PM 39.5900 -112.3656 25° Northeast 448 516 21,400 -3,435 Descending Salt Lake Center
Sun 05:17:10 PM 39.7192 -112.2861 25° Northeast 430 495 17,500 -3,097 Descending Salt Lake Center
Sun 05:18:12 PM 39.8217 -112.2233 25° Northeast 410 472 15,000 -1,210 Descending Salt Lake Center
Sun 05:19:14 PM 39.9103 -112.1683 25° Northeast 342 394 15,000  Level Salt Lake Center
Sun 05:20:16 PM 39.9944 -112.1161 25° Northeast 338 389 15,000 -532 Level Salt Lake Center
Sun 05:21:18 PM 40.0819 -112.0614 26° Northeast 350 403 13,900 -1,008 Descending Salt Lake Center
Sun 05:22:21 PM 40.1642 -112.0114 25° Northeast 324 373 12,900 -1,200 Descending Salt Lake Center
Sun 05:23:23 PM 40.2608 -111.9508 26° Northeast 317 365 11,400 -1,113 Descending Salt Lake Center
Sun 05:24:25 PM 40.3472 -111.9333 North 315 362 10,600 -629 Descending Salt Lake Center
Sun 05:25:27 PM 40.4306 -111.9331 360° North 300 345 10,100 -629 Descending Salt Lake Center
Sun 05:26:29 PM 40.5108 -111.9469 353° North 292 336 9,300 -968 Descending Salt Lake Center
Sun 05:27:31 PM 40.5858 -111.9533 356° North 268 308 8,100 -1,161 Descending Salt Lake Center

Login

Don't have an account? Register now (free) for customized features, flight alerts, and more!